createdAt,value
2018-03-17T00:00:15.873Z,5.70
2018-03-17T00:01:22.689Z,6.50
2018-03-17T00:02:29.436Z,6.90
2018-03-17T00:03:36.219Z,6.10
2018-03-17T00:04:42.955Z,7.10
2018-03-17T00:05:49.700Z,7.50
2018-03-17T00:06:56.418Z,9.80
2018-03-17T00:08:03.233Z,8.70
2018-03-17T00:09:09.998Z,7.50
2018-03-17T00:10:16.837Z,7.90
2018-03-17T00:11:23.658Z,7.00
2018-03-17T00:12:30.388Z,7.40
2018-03-17T00:13:37.147Z,7.80
2018-03-17T00:14:43.881Z,8.10
2018-03-17T00:15:50.724Z,8.40
2018-03-17T00:16:57.452Z,9.20
2018-03-17T00:18:04.188Z,9.00
2018-03-17T00:19:10.933Z,7.70
2018-03-17T00:20:17.855Z,7.10
2018-03-17T00:21:24.595Z,6.20
2018-03-17T00:22:31.350Z,7.80
2018-03-17T00:23:38.205Z,6.50
2018-03-17T00:24:45.001Z,11.60
2018-03-17T00:25:51.700Z,9.90
2018-03-17T00:26:58.428Z,9.80
2018-03-17T00:28:05.264Z,9.30
2018-03-17T00:29:11.992Z,8.60
2018-03-17T00:30:18.731Z,7.00
2018-03-17T00:31:25.473Z,6.00
2018-03-17T00:32:32.322Z,6.30
2018-03-17T00:33:39.120Z,6.80
2018-03-17T00:34:45.868Z,7.30
2018-03-17T00:35:52.612Z,6.50
2018-03-17T00:36:59.364Z,6.80
2018-03-17T00:38:06.092Z,6.30
2018-03-17T00:39:13.040Z,6.50
2018-03-17T00:40:19.796Z,6.00
2018-03-17T00:41:26.590Z,6.30
2018-03-17T00:42:33.407Z,6.00
2018-03-17T00:43:40.225Z,5.20
2018-03-17T00:44:46.969Z,6.30
2018-03-17T00:45:53.719Z,5.50
2018-03-17T00:47:00.420Z,5.90
2018-03-17T00:48:07.268Z,6.10
2018-03-17T00:49:14.025Z,6.20
2018-03-17T00:50:20.760Z,6.10
2018-03-17T00:51:27.489Z,6.90
2018-03-17T00:52:34.289Z,7.50
2018-03-17T00:53:40.960Z,7.40
2018-03-17T00:54:47.763Z,6.50
2018-03-17T00:55:54.449Z,6.80
2018-03-17T00:57:01.152Z,6.20
2018-03-17T00:58:07.949Z,5.90
2018-03-17T00:59:14.680Z,6.00
2018-03-17T01:00:21.407Z,6.30
2018-03-17T01:01:28.225Z,6.90
2018-03-17T01:02:35.000Z,6.50
2018-03-17T01:03:41.680Z,6.60
2018-03-17T01:04:48.401Z,6.70
2018-03-17T01:05:55.130Z,6.90
2018-03-17T01:07:01.820Z,7.40
2018-03-17T01:08:08.545Z,7.10
2018-03-17T01:09:15.348Z,6.70
2018-03-17T01:10:22.053Z,7.00
2018-03-17T01:11:28.769Z,6.90
2018-03-17T01:12:35.468Z,6.40
2018-03-17T01:13:42.290Z,8.20
2018-03-17T01:14:49.040Z,9.70
2018-03-17T01:15:55.774Z,11.20
2018-03-17T01:17:02.504Z,9.80
2018-03-17T01:18:09.281Z,10.40
2018-03-17T01:19:15.972Z,10.80
2018-03-17T01:20:22.753Z,11.30
2018-03-17T01:21:29.462Z,8.80
2018-03-17T01:22:36.221Z,7.60
2018-03-17T01:23:42.896Z,8.10
2018-03-17T01:24:49.594Z,7.70
2018-03-17T01:25:56.301Z,7.30
2018-03-17T01:27:03.066Z,7.70
2018-03-17T01:28:09.735Z,7.60
2018-03-17T01:29:16.427Z,8.20
2018-03-17T01:30:23.136Z,7.40
2018-03-17T01:31:29.875Z,7.30
2018-03-17T01:32:36.598Z,8.30
2018-03-17T01:33:43.288Z,7.90
2018-03-17T01:34:50.105Z,7.60
2018-03-17T01:35:56.881Z,7.70
2018-03-17T01:37:03.710Z,8.70
2018-03-17T01:38:10.387Z,7.70
2018-03-17T01:39:17.185Z,8.00
2018-03-17T01:40:23.856Z,7.90
2018-03-17T01:41:30.564Z,8.10
2018-03-17T01:42:37.241Z,7.90
2018-03-17T01:43:43.953Z,9.20
2018-03-17T01:44:50.661Z,9.40
2018-03-17T01:45:57.396Z,9.80
2018-03-17T01:47:04.238Z,9.50
2018-03-17T01:48:10.924Z,9.40
2018-03-17T01:49:17.635Z,9.60
2018-03-17T01:50:24.354Z,10.00
2018-03-17T01:51:31.104Z,9.20
2018-03-17T01:52:37.797Z,8.50
2018-03-17T01:53:44.616Z,8.30
2018-03-17T01:54:51.265Z,9.90
2018-03-17T01:55:57.951Z,10.00
2018-03-17T01:57:04.704Z,9.90
2018-03-17T01:58:11.401Z,10.00
2018-03-17T01:59:18.097Z,9.80
2018-03-17T02:00:24.775Z,10.20
2018-03-17T02:01:31.561Z,11.00
2018-03-17T02:02:38.265Z,10.70
2018-03-17T02:03:44.968Z,11.30
2018-03-17T02:04:51.680Z,11.00
2018-03-17T02:05:58.365Z,11.00
2018-03-17T02:07:05.082Z,10.30
2018-03-17T02:08:11.768Z,9.70
2018-03-17T02:09:18.540Z,8.20
2018-03-17T02:10:25.229Z,8.40
2018-03-17T02:11:31.907Z,7.80
2018-03-17T02:12:38.640Z,7.40
2018-03-17T02:13:45.312Z,7.80
2018-03-17T02:14:52.024Z,7.50
2018-03-17T02:15:58.721Z,8.00
2018-03-17T02:17:05.513Z,8.70
2018-03-17T02:18:12.296Z,8.20
2018-03-17T02:19:18.976Z,9.20
2018-03-17T02:20:25.702Z,9.10
2018-03-17T02:21:32.384Z,9.80
2018-03-17T02:22:39.100Z,10.00
2018-03-17T02:23:45.896Z,9.70
2018-03-17T02:24:52.576Z,10.30
2018-03-17T02:25:59.444Z,11.40
2018-03-17T02:27:06.162Z,11.40
2018-03-17T02:28:12.907Z,11.50
2018-03-17T02:29:19.617Z,12.90
2018-03-17T02:30:26.312Z,13.30
2018-03-17T02:31:33.073Z,15.60
2018-03-17T02:32:39.756Z,16.00
2018-03-17T02:33:46.455Z,15.70
2018-03-17T02:34:53.207Z,17.90
2018-03-17T02:35:59.900Z,17.00
2018-03-17T02:37:06.599Z,15.10
2018-03-17T02:38:13.376Z,17.40
2018-03-17T02:39:20.094Z,16.20
2018-03-17T02:40:26.870Z,16.80
2018-03-17T02:41:33.589Z,14.70
2018-03-17T02:42:40.397Z,15.60
2018-03-17T02:43:47.136Z,15.00
2018-03-17T02:44:53.976Z,14.30
2018-03-17T02:46:00.713Z,12.90
2018-03-17T02:47:07.515Z,13.70
2018-03-17T02:48:14.312Z,12.70
2018-03-17T02:49:21.026Z,12.60
2018-03-17T02:50:28.024Z,12.30
2018-03-17T02:51:34.736Z,12.10
2018-03-17T02:52:41.433Z,11.90
2018-03-17T02:53:48.154Z,11.50
2018-03-17T02:54:54.920Z,11.30
2018-03-17T02:56:01.718Z,11.70
2018-03-17T02:57:08.436Z,11.40
2018-03-17T02:58:15.124Z,10.50
2018-03-17T02:59:21.849Z,12.90
2018-03-17T03:00:28.560Z,9.60
2018-03-17T03:01:35.253Z,10.00
2018-03-17T03:02:41.977Z,9.70
2018-03-17T03:03:48.739Z,10.00
2018-03-17T03:04:55.445Z,9.30
2018-03-17T03:06:02.167Z,9.90
2018-03-17T03:07:08.909Z,10.00
2018-03-17T03:08:15.618Z,8.80
2018-03-17T03:09:22.410Z,9.50
2018-03-17T03:10:29.112Z,9.60
2018-03-17T03:11:35.804Z,9.50
2018-03-17T03:12:42.491Z,9.80
2018-03-17T03:13:49.216Z,10.50
2018-03-17T03:14:55.930Z,10.00
2018-03-17T03:16:02.720Z,10.30
2018-03-17T03:17:09.449Z,10.10
2018-03-17T03:18:16.148Z,11.20
2018-03-17T03:19:22.864Z,9.70
2018-03-17T03:20:29.561Z,9.70
2018-03-17T03:21:36.392Z,10.20
2018-03-17T03:22:43.141Z,10.10
2018-03-17T03:23:49.957Z,10.00
2018-03-17T03:24:56.687Z,10.60
2018-03-17T03:26:03.416Z,10.80
2018-03-17T03:27:10.137Z,10.50
2018-03-17T03:28:16.832Z,10.40
2018-03-17T03:29:23.524Z,10.50
2018-03-17T03:30:30.228Z,9.50
2018-03-17T03:31:36.937Z,10.80
2018-03-17T03:32:43.696Z,10.20
2018-03-17T03:33:50.401Z,10.40
2018-03-17T03:34:57.108Z,10.70
2018-03-17T03:36:03.836Z,10.30
2018-03-17T03:37:10.568Z,10.20
2018-03-17T03:38:17.361Z,10.40
2018-03-17T03:39:24.065Z,10.30
2018-03-17T03:40:30.753Z,10.60
2018-03-17T03:41:37.476Z,10.70
2018-03-17T03:42:44.272Z,9.50
2018-03-17T03:43:51.036Z,10.30
2018-03-17T03:44:57.708Z,10.60
2018-03-17T03:46:04.408Z,10.60
2018-03-17T03:47:11.212Z,11.10
2018-03-17T03:48:17.929Z,11.10
2018-03-17T03:49:24.700Z,11.40
2018-03-17T03:50:31.392Z,11.00
2018-03-17T03:51:38.075Z,11.50
2018-03-17T03:52:44.832Z,11.10
2018-03-17T03:53:51.532Z,9.90
2018-03-17T03:54:58.220Z,11.60
2018-03-17T03:56:04.973Z,11.50
2018-03-17T03:57:11.685Z,11.80
2018-03-17T03:58:18.407Z,10.60
2018-03-17T03:59:25.104Z,11.20
2018-03-17T04:00:31.910Z,11.00
2018-03-17T04:01:38.605Z,11.90
2018-03-17T04:02:45.379Z,11.90
2018-03-17T04:03:52.109Z,11.60
2018-03-17T04:04:58.811Z,12.00
2018-03-17T04:06:05.549Z,11.40
2018-03-17T04:07:12.256Z,12.10
2018-03-17T04:08:18.977Z,11.80
2018-03-17T04:09:25.725Z,12.30
2018-03-17T04:10:32.426Z,12.70
2018-03-17T04:11:39.152Z,11.70
2018-03-17T04:12:45.840Z,12.70
2018-03-17T04:13:52.672Z,13.30
2018-03-17T04:14:59.401Z,12.70
2018-03-17T04:16:06.088Z,13.10
2018-03-17T04:17:12.792Z,12.50
2018-03-17T04:18:19.541Z,13.80
2018-03-17T04:19:26.283Z,12.10
2018-03-17T04:20:32.997Z,12.40
2018-03-17T04:21:39.790Z,13.20
2018-03-17T04:22:46.582Z,13.20
2018-03-17T04:23:53.362Z,12.50
2018-03-17T04:25:00.164Z,13.00
2018-03-17T04:26:06.936Z,13.20
2018-03-17T04:27:13.641Z,14.50
2018-03-17T04:28:20.391Z,12.90
2018-03-17T04:29:27.193Z,12.20
2018-03-17T04:30:33.966Z,12.90
2018-03-17T04:31:40.652Z,13.60
2018-03-17T04:32:47.352Z,13.80
2018-03-17T04:33:54.088Z,12.90
2018-03-17T04:35:00.783Z,13.30
2018-03-17T04:36:07.693Z,13.00
2018-03-17T04:37:14.413Z,13.80
2018-03-17T04:38:21.165Z,13.20
2018-03-17T04:39:27.896Z,13.50
2018-03-17T04:40:34.600Z,13.10
2018-03-17T04:41:41.367Z,13.90
2018-03-17T04:42:48.133Z,13.60
2018-03-17T04:43:54.821Z,13.30
2018-03-17T04:45:01.648Z,13.10
2018-03-17T04:46:08.422Z,13.90
2018-03-17T04:47:15.095Z,13.10
2018-03-17T04:48:22.172Z,13.40
2018-03-17T04:49:28.873Z,13.20
2018-03-17T04:50:35.583Z,13.70
2018-03-17T04:51:42.407Z,13.90
2018-03-17T04:52:49.198Z,14.10
2018-03-17T04:53:55.884Z,13.80
2018-03-17T04:55:02.625Z,13.90
2018-03-17T04:56:09.348Z,12.80
2018-03-17T04:57:16.065Z,14.30
2018-03-17T04:58:22.868Z,14.20
2018-03-17T04:59:29.532Z,12.80
2018-03-17T05:00:36.703Z,13.80
2018-03-17T05:01:43.420Z,14.20
2018-03-17T05:02:50.120Z,13.30
2018-03-17T05:03:56.850Z,14.30
2018-03-17T05:05:03.735Z,14.30
2018-03-17T05:06:10.440Z,15.50
2018-03-17T05:07:17.182Z,14.70
2018-03-17T05:08:23.901Z,15.80
2018-03-17T05:09:30.596Z,13.80
2018-03-17T05:10:37.417Z,15.00
2018-03-17T05:11:44.123Z,13.90
2018-03-17T05:12:50.840Z,14.30
2018-03-17T05:13:57.558Z,14.30
2018-03-17T05:15:04.280Z,14.80
2018-03-17T05:16:10.991Z,13.80
2018-03-17T05:17:17.740Z,14.00
2018-03-17T05:18:24.424Z,14.70
2018-03-17T05:19:31.115Z,14.90
2018-03-17T05:20:37.820Z,14.70
2018-03-17T05:21:44.525Z,13.80
2018-03-17T05:22:51.244Z,14.60
2018-03-17T05:23:57.920Z,14.70
2018-03-17T05:25:04.729Z,14.90
2018-03-17T05:26:11.516Z,14.40
2018-03-17T05:27:18.225Z,14.80
2018-03-17T05:28:24.945Z,15.20
2018-03-17T05:29:31.627Z,14.50
2018-03-17T05:30:38.323Z,15.00
2018-03-17T05:31:45.111Z,15.10
2018-03-17T05:32:51.788Z,14.90
2018-03-17T05:33:58.488Z,14.00
2018-03-17T05:35:05.189Z,15.00
2018-03-17T05:36:11.920Z,13.80
2018-03-17T05:37:18.612Z,15.50
2018-03-17T05:38:25.473Z,14.90
2018-03-17T05:39:32.161Z,14.70
2018-03-17T05:40:38.912Z,13.90
2018-03-17T05:41:45.664Z,14.90
2018-03-17T05:42:52.359Z,15.20
2018-03-17T05:43:59.061Z,14.80
2018-03-17T05:45:05.890Z,15.80
2018-03-17T05:46:12.970Z,15.40
2018-03-17T05:47:19.684Z,14.40
2018-03-17T05:48:26.396Z,15.50
2018-03-17T05:49:33.096Z,14.80
2018-03-17T05:50:39.836Z,14.90
2018-03-17T05:51:46.559Z,15.00
2018-03-17T05:52:53.337Z,14.50
2018-03-17T05:54:00.087Z,13.70
2018-03-17T05:55:06.793Z,14.50
2018-03-17T05:56:13.509Z,15.60
2018-03-17T05:57:20.208Z,15.20
2018-03-17T05:58:26.888Z,14.30
2018-03-17T05:59:33.568Z,14.10
2018-03-17T06:00:40.344Z,14.70
2018-03-17T06:01:47.023Z,14.40
2018-03-17T06:02:53.762Z,15.10
2018-03-17T06:04:00.479Z,14.30
2018-03-17T06:05:07.208Z,15.10
2018-03-17T06:06:13.907Z,15.40
2018-03-17T06:07:20.600Z,15.60
2018-03-17T06:08:27.400Z,15.40
2018-03-17T06:09:34.318Z,14.70
2018-03-17T06:10:41.021Z,16.30
2018-03-17T06:11:47.816Z,16.30
2018-03-17T06:12:54.548Z,15.90
2018-03-17T06:14:01.287Z,15.80
2018-03-17T06:15:07.964Z,15.60
2018-03-17T06:16:14.653Z,15.00
2018-03-17T06:17:21.361Z,15.40
2018-03-17T06:18:28.188Z,16.30
2018-03-17T06:19:34.900Z,15.70
2018-03-17T06:20:41.612Z,15.80
2018-03-17T06:21:48.316Z,15.40
2018-03-17T06:22:55.123Z,16.20
2018-03-17T06:24:01.885Z,15.60
2018-03-17T06:25:08.595Z,15.90
2018-03-17T06:26:15.303Z,16.40
2018-03-17T06:27:21.993Z,17.20
2018-03-17T06:28:28.687Z,17.00
2018-03-17T06:29:35.411Z,17.10
2018-03-17T06:30:42.187Z,16.90
2018-03-17T06:31:48.909Z,16.00
2018-03-17T06:32:55.619Z,16.40
2018-03-17T06:34:02.356Z,17.40
2018-03-17T06:35:09.061Z,15.70
2018-03-17T06:36:15.863Z,16.10
2018-03-17T06:37:22.566Z,15.70
2018-03-17T06:38:29.332Z,15.70
2018-03-17T06:39:36.059Z,16.70
2018-03-17T06:40:42.745Z,15.80
2018-03-17T06:41:49.466Z,16.40
2018-03-17T06:42:56.283Z,16.00
2018-03-17T06:44:03.013Z,16.60
2018-03-17T06:45:09.737Z,16.30
2018-03-17T06:46:16.417Z,15.70
2018-03-17T06:47:23.198Z,17.00
2018-03-17T06:48:29.923Z,16.90
2018-03-17T06:49:36.633Z,16.50
2018-03-17T06:50:43.353Z,16.60
2018-03-17T06:51:50.053Z,16.10
2018-03-17T06:52:56.766Z,16.30
2018-03-17T06:54:03.465Z,16.20
2018-03-17T06:55:10.336Z,15.80
2018-03-17T06:56:17.108Z,16.20
2018-03-17T06:57:23.852Z,16.20
2018-03-17T06:58:30.627Z,16.10
2018-03-17T06:59:37.364Z,16.60
2018-03-17T07:00:44.088Z,15.40
2018-03-17T07:01:50.804Z,15.50
2018-03-17T07:02:57.501Z,16.70
2018-03-17T07:04:04.220Z,17.00
2018-03-17T07:05:11.121Z,16.40
2018-03-17T07:06:17.818Z,15.60
2018-03-17T07:07:24.537Z,16.30
2018-03-17T07:08:31.245Z,16.80
2018-03-17T07:09:37.976Z,16.60
2018-03-17T07:10:44.702Z,16.90
2018-03-17T07:11:51.474Z,16.70
2018-03-17T07:12:58.616Z,17.10
2018-03-17T07:14:05.308Z,16.30
2018-03-17T07:15:12.033Z,16.80
2018-03-17T07:16:18.833Z,18.30
2018-03-17T07:17:25.542Z,19.10
2018-03-17T07:18:32.555Z,17.20
2018-03-17T07:19:39.275Z,18.60
2018-03-17T07:20:45.994Z,16.40
2018-03-17T07:21:52.742Z,16.20
2018-03-17T07:22:59.507Z,16.90
2018-03-17T07:24:06.231Z,16.40
2018-03-17T07:25:12.953Z,15.80
2018-03-17T07:26:19.654Z,16.90
2018-03-17T07:27:26.448Z,16.50
2018-03-17T07:28:33.144Z,17.10
2018-03-17T07:29:39.836Z,16.50
2018-03-17T07:30:46.537Z,16.50
2018-03-17T07:31:53.245Z,16.60
2018-03-17T07:32:59.968Z,16.00
2018-03-17T07:34:06.886Z,16.80
2018-03-17T07:35:13.573Z,16.30
2018-03-17T07:36:20.325Z,16.10
2018-03-17T07:37:27.025Z,16.50
2018-03-17T07:38:33.724Z,16.50
2018-03-17T07:39:40.397Z,17.00
2018-03-17T07:40:47.185Z,15.00
2018-03-17T07:41:53.912Z,17.50
2018-03-17T07:43:00.620Z,15.80
2018-03-17T07:44:07.323Z,14.70
2018-03-17T07:45:14.163Z,17.20
2018-03-17T07:46:20.888Z,15.80
2018-03-17T07:47:27.592Z,15.90
2018-03-17T07:48:34.292Z,15.10
2018-03-17T07:49:41.360Z,16.80
2018-03-17T07:50:48.187Z,16.00
2018-03-17T07:51:55.333Z,15.60
2018-03-17T07:53:02.094Z,15.70
2018-03-17T07:54:08.832Z,16.20
2018-03-17T07:55:15.528Z,16.20
2018-03-17T07:56:22.254Z,17.40
2018-03-17T07:57:29.009Z,17.50
2018-03-17T07:58:35.685Z,17.80
2018-03-17T07:59:42.372Z,17.40
2018-03-17T08:00:49.145Z,18.80
2018-03-17T08:01:55.821Z,19.60
2018-03-17T08:03:02.553Z,18.30
2018-03-17T08:04:09.241Z,19.50
2018-03-17T08:05:15.989Z,18.60
2018-03-17T08:06:22.637Z,19.60
2018-03-17T08:07:29.360Z,19.80
2018-03-17T08:08:36.148Z,19.70
2018-03-17T08:09:42.841Z,19.90
2018-03-17T08:10:49.565Z,17.20
2018-03-17T08:11:56.256Z,15.70
2018-03-17T08:13:02.985Z,15.70
2018-03-17T08:14:09.712Z,15.40
2018-03-17T08:15:16.481Z,16.60
2018-03-17T08:16:23.204Z,15.90
2018-03-17T08:17:29.897Z,19.10
2018-03-17T08:18:36.621Z,19.70
2018-03-17T08:19:43.373Z,19.30
2018-03-17T08:20:50.062Z,20.00
2018-03-17T08:21:57.209Z,19.70
2018-03-17T08:23:03.972Z,20.40
2018-03-17T08:24:10.692Z,20.00
2018-03-17T08:25:17.424Z,20.30
2018-03-17T08:26:24.136Z,19.90
2018-03-17T08:27:30.828Z,17.00
2018-03-17T08:28:37.518Z,16.50
2018-03-17T08:29:44.353Z,16.30
2018-03-17T08:30:51.084Z,15.50
2018-03-17T08:31:57.829Z,16.00
2018-03-17T08:33:04.644Z,17.30
2018-03-17T08:34:11.460Z,16.20
2018-03-17T08:35:18.188Z,16.10
2018-03-17T08:36:24.958Z,16.10
2018-03-17T08:37:31.637Z,17.00
2018-03-17T08:38:38.320Z,16.40
2018-03-17T08:39:45.238Z,16.50
2018-03-17T08:40:51.966Z,15.90
2018-03-17T08:41:58.675Z,15.90
2018-03-17T08:43:05.372Z,17.30
2018-03-17T08:44:12.148Z,15.80
2018-03-17T08:45:18.852Z,16.30
2018-03-17T08:46:25.552Z,16.20
2018-03-17T08:47:32.277Z,16.10
2018-03-17T08:48:39.065Z,14.60
2018-03-17T08:49:45.864Z,14.70
2018-03-17T08:50:52.657Z,15.70
2018-03-17T08:51:59.388Z,15.60
2018-03-17T08:53:06.164Z,16.50
2018-03-17T08:54:12.809Z,16.20
2018-03-17T08:55:19.725Z,16.30
2018-03-17T08:56:26.521Z,16.20
2018-03-17T08:57:33.252Z,15.90
2018-03-17T08:58:39.940Z,16.10
2018-03-17T08:59:46.770Z,15.70
2018-03-17T09:00:53.511Z,16.80
2018-03-17T09:02:00.257Z,15.90
2018-03-17T09:03:06.961Z,16.20
2018-03-17T09:04:13.668Z,15.30
2018-03-17T09:05:20.481Z,15.80
2018-03-17T09:06:27.238Z,16.70
2018-03-17T09:07:33.961Z,16.20
2018-03-17T09:08:40.725Z,16.10
2018-03-17T09:09:47.448Z,16.00
2018-03-17T09:10:54.228Z,15.80
2018-03-17T09:12:00.944Z,15.50
2018-03-17T09:13:07.709Z,15.20
2018-03-17T09:14:14.420Z,16.60
2018-03-17T09:15:21.204Z,16.50
2018-03-17T09:16:28.009Z,15.70
2018-03-17T09:17:34.716Z,15.00
2018-03-17T09:18:41.426Z,16.40
2018-03-17T09:19:48.144Z,14.30
2018-03-17T09:20:54.872Z,15.80
2018-03-17T09:22:01.693Z,16.50
2018-03-17T09:23:08.410Z,15.90
2018-03-17T09:24:15.146Z,23.70
2018-03-17T09:25:21.864Z,16.30
2018-03-17T09:26:28.573Z,16.20
2018-03-17T09:27:35.384Z,15.80
2018-03-17T09:28:42.081Z,15.30
2018-03-17T09:29:48.798Z,16.00
2018-03-17T09:30:55.505Z,16.00
2018-03-17T09:32:02.249Z,15.50
2018-03-17T09:33:08.932Z,15.90
2018-03-17T09:34:15.728Z,16.60
2018-03-17T09:35:22.405Z,14.60
2018-03-17T09:36:29.096Z,16.10
2018-03-17T09:37:35.834Z,15.70
2018-03-17T09:38:42.516Z,15.70
2018-03-17T09:39:49.230Z,16.30
2018-03-17T09:40:55.928Z,16.70
2018-03-17T09:42:02.765Z,17.10
2018-03-17T09:43:09.564Z,15.80
2018-03-17T09:44:16.277Z,16.40
2018-03-17T09:45:22.969Z,15.50
2018-03-17T09:46:29.698Z,14.60
2018-03-17T09:47:36.498Z,15.70
2018-03-17T09:48:43.232Z,15.80
2018-03-17T09:49:49.928Z,14.70
2018-03-17T09:50:56.640Z,15.60
2018-03-17T09:52:08.315Z,15.40
2018-03-17T09:53:10.022Z,15.50
2018-03-17T09:54:16.752Z,15.00
2018-03-17T09:55:23.442Z,15.90
2018-03-17T09:56:30.142Z,15.00
2018-03-17T09:57:36.844Z,16.10
2018-03-17T09:58:43.583Z,15.90
2018-03-17T09:59:50.285Z,15.40
2018-03-17T10:00:57.060Z,15.70
2018-03-17T10:02:03.803Z,14.90
2018-03-17T10:03:10.540Z,15.20
2018-03-17T10:04:17.236Z,14.90
2018-03-17T10:05:23.931Z,15.80
2018-03-17T10:06:30.713Z,15.20
2018-03-17T10:07:37.480Z,16.60
2018-03-17T10:08:44.201Z,15.70
2018-03-17T10:09:50.906Z,15.00
2018-03-17T10:10:57.929Z,15.10
2018-03-17T10:12:04.617Z,15.40
2018-03-17T10:13:11.326Z,14.60
2018-03-17T10:14:18.090Z,16.50
2018-03-17T10:15:24.870Z,16.00
2018-03-17T10:16:31.548Z,13.40
2018-03-17T10:17:38.248Z,14.10
2018-03-17T10:18:45.037Z,14.70
2018-03-17T10:19:51.755Z,39.90
2018-03-17T10:20:58.528Z,14.60
2018-03-17T10:22:05.208Z,18.10
2018-03-17T10:23:11.936Z,14.90
2018-03-17T10:24:18.688Z,14.40
2018-03-17T10:25:25.399Z,18.60
2018-03-17T10:26:32.232Z,15.60
2018-03-17T10:27:38.904Z,14.00
2018-03-17T10:28:45.602Z,16.20
2018-03-17T10:29:52.342Z,17.00
2018-03-17T10:30:59.040Z,18.80
2018-03-17T10:32:05.758Z,32.70
2018-03-17T10:33:12.551Z,21.50
2018-03-17T10:34:19.218Z,17.30
2018-03-17T10:35:26.406Z,15.00
2018-03-17T10:36:33.172Z,14.10
2018-03-17T10:37:39.879Z,15.00
2018-03-17T10:38:46.583Z,15.90
2018-03-17T10:39:53.299Z,15.40
2018-03-17T10:41:00.054Z,15.60
2018-03-17T10:42:06.724Z,14.40
2018-03-17T10:43:13.449Z,14.90
2018-03-17T10:44:20.331Z,15.40
2018-03-17T10:45:27.141Z,14.40
2018-03-17T10:46:33.879Z,14.30
2018-03-17T10:47:40.620Z,16.60
2018-03-17T10:48:47.308Z,13.50
2018-03-17T10:49:54.020Z,14.40
2018-03-17T10:51:00.709Z,15.80
2018-03-17T10:52:07.490Z,15.10
2018-03-17T10:53:14.246Z,13.90
2018-03-17T10:54:20.951Z,14.10
2018-03-17T10:55:27.713Z,15.00
2018-03-17T10:56:34.570Z,14.90
2018-03-17T10:57:41.276Z,14.40
2018-03-17T10:58:48.077Z,14.50
2018-03-17T10:59:54.816Z,16.00
2018-03-17T11:01:01.673Z,15.00
2018-03-17T11:02:08.420Z,14.00
2018-03-17T11:03:15.164Z,15.40
2018-03-17T11:04:21.865Z,16.70
2018-03-17T11:05:28.592Z,14.30
2018-03-17T11:06:35.365Z,14.00
2018-03-17T11:07:42.049Z,14.10
2018-03-17T11:08:48.800Z,15.70
2018-03-17T11:09:55.520Z,14.70
2018-03-17T11:11:02.253Z,14.10
2018-03-17T11:12:09.055Z,14.30
2018-03-17T11:13:16.233Z,13.70
2018-03-17T11:14:22.925Z,13.70
2018-03-17T11:15:29.625Z,14.30
2018-03-17T11:16:36.357Z,14.60
2018-03-17T11:17:43.049Z,14.20
2018-03-17T11:18:49.933Z,14.50
2018-03-17T11:19:56.631Z,14.30
2018-03-17T11:21:03.340Z,14.10
2018-03-17T11:22:10.088Z,13.80
2018-03-17T11:23:16.801Z,12.90
2018-03-17T11:24:23.500Z,13.40
2018-03-17T11:25:30.189Z,13.50
2018-03-17T11:26:36.983Z,14.30
2018-03-17T11:27:43.653Z,14.00
2018-03-17T11:28:50.345Z,14.40
2018-03-17T11:29:57.061Z,13.50
2018-03-17T11:31:03.756Z,13.10
2018-03-17T11:32:10.476Z,13.40
2018-03-17T11:33:17.207Z,13.60
2018-03-17T11:34:23.947Z,13.70
2018-03-17T11:35:30.727Z,13.50
2018-03-17T11:36:37.484Z,13.20
2018-03-17T11:37:44.216Z,13.60
2018-03-17T11:38:51.006Z,13.30
2018-03-17T11:39:57.784Z,13.70
2018-03-17T11:41:04.489Z,13.50
2018-03-17T11:42:11.429Z,12.60
2018-03-17T11:43:18.189Z,12.30
2018-03-17T11:44:24.916Z,13.00
2018-03-17T11:45:31.623Z,13.50
2018-03-17T11:46:38.341Z,13.20
2018-03-17T11:47:45.180Z,12.60
2018-03-17T11:48:51.876Z,13.40
2018-03-17T11:49:58.592Z,14.40
2018-03-17T11:51:05.304Z,12.90
2018-03-17T11:52:12.027Z,13.60
2018-03-17T11:53:18.744Z,13.20
2018-03-17T11:54:25.538Z,13.30
2018-03-17T11:55:32.212Z,12.80
2018-03-17T11:56:38.913Z,12.70
2018-03-17T11:57:45.625Z,13.20
2018-03-17T11:58:52.330Z,12.80
2018-03-17T11:59:59.045Z,12.90
2018-03-17T12:01:05.729Z,12.90
2018-03-17T12:02:12.624Z,12.70
2018-03-17T12:03:19.385Z,12.50
2018-03-17T12:04:26.088Z,13.40
2018-03-17T12:05:32.826Z,12.90
2018-03-17T12:06:39.549Z,12.20
2018-03-17T12:07:46.337Z,12.10
2018-03-17T12:08:53.335Z,13.20
2018-03-17T12:10:00.149Z,13.10
2018-03-17T12:11:06.880Z,13.80
2018-03-17T12:12:13.579Z,13.20
2018-03-17T12:13:20.278Z,12.60
2018-03-17T12:14:27.028Z,13.40
2018-03-17T12:15:33.720Z,12.90
2018-03-17T12:16:40.617Z,12.10
2018-03-17T12:17:47.336Z,12.20
2018-03-17T12:18:54.009Z,11.90
2018-03-17T12:20:00.748Z,12.40
2018-03-17T12:21:07.568Z,11.90
2018-03-17T12:22:14.253Z,12.40
2018-03-17T12:23:21.004Z,12.70
2018-03-17T12:24:27.702Z,12.60
2018-03-17T12:25:34.438Z,13.20
2018-03-17T12:26:41.142Z,13.00
2018-03-17T12:27:47.937Z,13.00
2018-03-17T12:28:54.648Z,12.90
2018-03-17T12:30:01.385Z,12.90
2018-03-17T12:31:08.149Z,13.40
2018-03-17T12:32:14.828Z,12.80
2018-03-17T12:33:21.504Z,14.20
2018-03-17T12:34:28.200Z,12.90
2018-03-17T12:35:34.999Z,12.30
2018-03-17T12:36:41.685Z,12.70
2018-03-17T12:37:48.456Z,13.30
2018-03-17T12:38:55.193Z,12.30
2018-03-17T12:40:01.893Z,13.10
2018-03-17T12:41:08.940Z,13.10
2018-03-17T12:42:15.661Z,12.50
2018-03-17T12:43:22.494Z,13.00
2018-03-17T12:44:29.279Z,13.50
2018-03-17T12:45:36.016Z,12.80
2018-03-17T12:46:42.818Z,13.40
2018-03-17T12:47:49.560Z,13.10
2018-03-17T12:48:56.240Z,13.60
2018-03-17T12:50:02.952Z,13.20
2018-03-17T12:51:09.663Z,13.10
2018-03-17T12:52:16.388Z,13.30
2018-03-17T12:53:23.345Z,13.90
2018-03-17T12:54:30.140Z,13.60
2018-03-17T12:55:36.832Z,12.90
2018-03-17T12:56:43.561Z,13.00
2018-03-17T12:57:50.286Z,13.20
2018-03-17T12:58:57.053Z,15.80
2018-03-17T13:00:03.792Z,13.70
2018-03-17T13:01:10.562Z,16.50
2018-03-17T13:02:17.457Z,13.30
2018-03-17T13:03:24.424Z,13.60
2018-03-17T13:04:31.283Z,13.60
2018-03-17T13:05:38.347Z,12.80
2018-03-17T13:06:45.096Z,13.90
2018-03-17T13:07:51.935Z,14.20
2018-03-17T13:08:58.874Z,14.50
2018-03-17T13:10:05.644Z,29.30
2018-03-17T13:11:12.413Z,29.60
2018-03-17T13:12:19.121Z,25.50
2018-03-17T13:13:25.948Z,13.40
2018-03-17T13:14:32.692Z,19.70
2018-03-17T13:15:39.405Z,13.30
2018-03-17T13:16:46.160Z,12.50
2018-03-17T13:17:52.849Z,16.50
2018-03-17T13:18:59.649Z,14.10
2018-03-17T13:20:06.412Z,14.00
2018-03-17T13:21:13.113Z,13.50
2018-03-17T13:22:19.841Z,12.90
2018-03-17T13:23:26.614Z,12.60
2018-03-17T13:24:33.352Z,13.10
2018-03-17T13:25:40.056Z,15.20
2018-03-17T13:26:46.749Z,14.20
2018-03-17T13:27:53.607Z,14.80
2018-03-17T13:29:00.505Z,13.30
2018-03-17T13:30:07.216Z,14.20
2018-03-17T13:31:13.976Z,13.50
2018-03-17T13:32:20.648Z,13.50
2018-03-17T13:33:27.525Z,15.90
2018-03-17T13:34:34.301Z,14.50
2018-03-17T13:35:41.258Z,17.70
2018-03-17T13:36:48.128Z,15.70
2018-03-17T13:37:54.794Z,12.80
2018-03-17T13:39:01.829Z,13.00
2018-03-17T13:40:08.252Z,13.30
2018-03-17T13:41:15.111Z,13.60
2018-03-17T13:42:21.833Z,14.00
2018-03-17T13:43:28.548Z,12.40
2018-03-17T13:44:35.277Z,13.80
2018-03-17T13:45:42.087Z,13.10
2018-03-17T13:46:48.784Z,13.10
2018-03-17T13:47:55.496Z,13.30
2018-03-17T13:49:02.228Z,12.90
2018-03-17T13:50:08.933Z,12.60
2018-03-17T13:51:15.630Z,13.40
2018-03-17T13:52:22.431Z,13.80
2018-03-17T13:53:29.144Z,13.30
2018-03-17T13:54:35.889Z,13.60
2018-03-17T13:55:42.592Z,13.30
2018-03-17T13:56:49.326Z,22.70
2018-03-17T13:57:56.212Z,17.80
2018-03-17T13:59:02.932Z,20.30
2018-03-17T14:00:09.677Z,25.20
2018-03-17T14:01:16.392Z,20.50
2018-03-17T14:02:23.300Z,18.70
2018-03-17T14:03:30.037Z,14.90
2018-03-17T14:04:36.741Z,13.70
2018-03-17T14:05:43.505Z,13.00
2018-03-17T14:06:50.265Z,12.50
2018-03-17T14:07:57.051Z,13.60
2018-03-17T14:09:03.761Z,12.70
2018-03-17T14:10:10.474Z,12.70
2018-03-17T14:11:17.444Z,13.70
2018-03-17T14:12:24.144Z,14.30
2018-03-17T14:13:30.845Z,13.00
2018-03-17T14:14:37.568Z,13.80
2018-03-17T14:15:44.288Z,12.30
2018-03-17T14:16:51.009Z,12.90
2018-03-17T14:17:57.712Z,13.40
2018-03-17T14:19:04.496Z,14.00
2018-03-17T14:20:11.185Z,12.60
2018-03-17T14:21:17.897Z,12.50
2018-03-17T14:22:24.617Z,12.40
2018-03-17T14:23:31.333Z,12.40